Latest Weather Observations for Ballina

IDN60801

Issued at 11:05 pm EST Monday 1 September 2014 (issued every 30 minutes, with the page automatically refreshed every 10 minutes)

About weather observations | Map of weather stations | Latest weather observations for NSW | Other Formats
Station Details ID: 058198 Name: BALLINA AIRPORT AWS Lat: -28.84 Lon: 153.56 Height: 1.3 m
Data from the previous 72 hours. | See also: Recent months at Ballina
Date/Time
EST
Temp
°C
App
Temp
°C
Dew
Point
Rel
Hum
%
Delta-T
°C
Wind Press
QNH
hPa
Press
MSL
hPa
Rain
since 9 am
mm
Dir
 
Spd
km/h
Gust
km/h
Spd
kts
Gust
kts
01/11:00pm 17.7 15.3 13.8 78 2.2 N 19 22 10 12 1015.0 1015.0 1.0
01/10:30pm 17.9 15.9 14.0 78 2.2 N 17 22 9 12 1015.0 - 1.0
01/10:00pm 18.1 15.8 14.2 78 2.2 N 19 26 10 14 1014.9 1014.9 1.0
01/09:30pm 18.1 16.0 14.8 81 1.9 N 19 24 10 13 1015.1 - 1.0
01/09:00pm 18.1 16.5 15.0 82 1.8 N 17 24 9 13 1015.4 1015.4 1.0
01/08:30pm 18.4 16.8 14.9 80 2.0 N 17 28 9 15 1015.4 - 1.0
01/08:00pm 18.6 16.4 14.9 79 2.2 N 20 30 11 16 1015.5 1015.5 1.0
01/07:30pm 18.6 16.5 14.7 78 2.3 N 19 28 10 15 1015.2 - 1.0
01/07:00pm 18.9 16.7 14.8 77 2.4 N 20 30 11 16 1015.1 1015.1 1.0
01/06:30pm 18.8 16.7 15.1 79 2.2 NNE 20 30 11 16 1014.9 - 1.0
01/06:00pm 18.7 16.8 15.2 80 2.0 NNE 19 26 10 14 1014.6 1014.6 1.0
01/05:30pm 19.1 16.9 15.0 77 2.4 NNE 20 30 11 16 1014.5 - 1.0
01/05:00pm 20.2 18.0 14.8 71 3.2 N 20 32 11 17 1014.7 1014.7 1.0
01/04:30pm 20.6 18.1 15.2 71 3.2 NNE 22 32 12 17 1014.3 - 1.0
01/04:00pm 21.1 18.2 15.0 68 3.6 NNE 24 37 13 20 1014.2 1014.2 1.0
01/03:30pm 21.6 18.7 15.2 67 3.8 NE 24 32 13 17 1014.4 - 1.0
01/03:00pm 21.5 18.0 14.4 64 4.1 NE 26 35 14 19 1014.5 1014.5 1.0
01/02:30pm 22.1 19.2 15.2 65 4.1 NNE 24 32 13 17 1014.8 - 1.0
01/02:00pm 22.0 19.1 15.1 65 4.1 NE 24 32 13 17 1015.1 1015.1 1.0
01/01:30pm 21.6 18.2 14.7 65 4.1 NE 26 33 14 18 1015.5 - 1.0
01/01:00pm 20.1 17.1 14.9 72 3.0 NE 24 33 13 18 1015.9 1015.9 1.0
01/12:30pm 21.6 18.7 15.2 67 3.8 NE 24 30 13 16 1016.2 - 0.0
01/12:00pm 22.1 20.2 15.7 67 3.8 NE 20 28 11 15 1017.1 1017.1 0.0
01/11:30am 21.3 18.8 14.2 64 4.1 ENE 20 24 11 13 1017.6 - 0.0
01/11:00am 22.0 19.8 14.4 62 4.4 NE 19 24 10 13 1018.3 1018.3 0.0
01/10:30am 22.1 21.1 14.7 63 4.4 NNE 13 19 7 10 1018.7 - 0.0
01/10:00am 21.5 21.1 12.9 58 4.9 N 7 13 4 7 1018.9 1018.9 0.0
01/09:30am 21.1 20.8 14.3 65 4.0 NNW 9 19 5 10 1019.1 - 0.0
01/09:00am 20.5 20.7 14.6 69 3.4 NNW 7 11 4 6 1019.4 1019.4 0.0
01/08:30am 18.5 20.2 15.2 81 1.9 CALM 0 6 0 3 1019.4 - 0.0
01/08:00am 16.4 18.0 14.8 90 0.9 CALM 0 0 0 0 1019.3 1019.3 0.0
01/07:30am 15.6 16.1 15.0 96 0.3 NNW 6 7 3 4 1019.1 - 0.0
01/07:00am 14.6 15.9 14.1 97 0.3 CALM 0 0 0 0 1019.0 1019.0 0.0
01/06:30am 13.9 15.0 13.4 97 0.3 CALM 0 0 0 0 1018.7 - 0.0
01/06:00am 13.7 14.7 13.2 97 0.3 CALM 0 0 0 0 1018.7 1018.7 0.0
01/05:30am 13.8 14.8 13.2 96 0.3 CALM 0 0 0 0 1018.3 - 0.0
01/05:00am 13.8 14.8 13.2 96 0.3 CALM 0 0 0 0 1018.0 1018.0 0.0
01/04:30am 14.2 15.3 13.4 95 0.4 CALM 0 0 0 0 1018.0 - 0.0
01/04:00am 14.4 15.5 13.4 94 0.6 CALM 0 0 0 0 1017.9 1017.9 0.0
01/03:30am 14.8 14.7 14.0 95 0.4 W 7 7 4 4 1018.0 - 0.0
01/03:00am 14.7 14.7 14.1 96 0.3 W 7 7 4 4 1018.0 1018.0 0.0
01/02:30am 14.5 14.6 14.0 97 0.3 WNW 6 6 3 3 1018.1 - 0.0
01/02:00am 14.0 15.1 13.5 97 0.3 CALM 0 0 0 0 1018.2 1018.2 0.0
01/01:30am 13.9 14.9 13.3 96 0.3 CALM 0 0 0 0 1018.4 - 0.0
01/01:00am 14.1 15.2 13.5 96 0.3 CALM 0 0 0 0 1018.6 1018.6 0.0
01/12:30am 14.4 15.6 13.8 96 0.3 CALM 0 0 0 0 1018.7 - 0.0
01/12:16am 14.2 15.3 13.6 96 0.3 CALM 0 0 0 0 1018.6 - 0.0
01/12:00am 14.5 15.7 13.9 96 0.3 NW 0 0 0 0 1018.7 1018.7 0.0
 
Date/Time
EST
Temp
°C
App
Temp
°C
Dew
Point
Rel
Hum
%
Delta-T
°C
Wind Press
QNH
hPa
Press
MSL
hPa
Rain
since 9 am
mm
Dir
 
Spd
km/h
Gust
km/h
Spd
kts
Gust
kts
31/11:57pm 14.0 15.0 13.2 95 0.4 CALM 0 0 0 0 1018.7 - 0.0
31/11:30pm 14.3 15.4 13.5 95 0.4 CALM 0 0 0 0 1018.7 - 0.0
31/11:00pm 14.3 15.3 13.3 94 0.6 CALM 0 0 0 0 1018.9 1018.9 0.0
31/10:30pm 14.7 15.5 13.7 94 0.6 NW 2 6 1 3 1018.8 - 0.0
31/10:00pm 15.0 15.6 14.2 95 0.5 NW 4 6 2 3 1018.8 1018.8 0.0
31/09:30pm 14.9 15.4 14.1 95 0.5 NW 4 6 2 3 1018.8 - 0.0
31/09:00pm 15.2 15.5 14.4 95 0.5 NW 6 7 3 4 1018.7 1018.7 0.0
31/08:30pm 14.6 14.6 13.5 93 0.6 WSW 6 7 3 4 1018.7 - 0.0
31/08:00pm 14.9 15.6 13.4 91 0.8 SSW 2 7 1 4 1018.6 1018.6 0.0
31/07:30pm 16.2 16.3 13.9 86 1.3 S 6 7 3 4 1018.6 - 0.0
31/07:00pm 16.4 16.2 13.7 84 1.5 SSE 7 11 4 6 1018.2 1018.2 0.0
31/06:30pm 17.0 15.8 14.1 83 1.7 SSE 13 17 7 9 1017.7 - 0.0
31/06:00pm 16.9 15.6 13.8 82 1.8 SSE 13 17 7 9 1017.5 1017.5 0.0
31/05:30pm 17.4 16.1 13.7 79 2.1 SSE 13 19 7 10 1017.2 - 0.0
31/05:00pm 18.3 16.3 13.8 75 2.6 SE 17 22 9 12 1017.0 1017.0 0.0
31/04:30pm 18.9 16.8 13.7 72 3.0 SSE 17 22 9 12 1017.1 - 0.0
31/04:00pm 19.3 16.9 13.7 70 3.2 SSE 19 24 10 13 1017.0 1017.0 0.0
31/03:30pm 19.7 17.5 14.3 71 3.1 SSE 19 26 10 14 1016.8 - 0.0
31/03:00pm 20.5 17.8 14.6 69 3.4 SSE 22 32 12 17 1016.6 1016.6 0.0
31/02:30pm 20.7 17.1 14.1 66 3.8 S 26 39 14 21 1016.7 - 0.0
31/02:00pm 20.3 16.2 12.8 62 4.2 SSE 26 33 14 18 1016.8 1016.8 0.0
31/01:30pm 20.2 16.2 12.9 63 4.1 S 26 33 14 18 1016.9 - 0.0
31/01:00pm 21.0 17.1 13.4 62 4.4 S 26 33 14 18 1017.1 1017.1 0.0
31/12:30pm 20.5 16.2 12.2 59 4.6 S 26 32 14 17 1017.6 - 0.0
31/12:00pm 20.8 17.4 12.5 59 4.7 S 22 30 12 16 1017.9 1017.9 0.0
31/11:30am 21.1 17.8 12.8 59 4.7 S 22 32 12 17 1018.3 - 0.0
31/11:00am 20.8 17.9 12.2 58 4.8 SSW 19 26 10 14 1018.6 1018.6 0.0
31/10:30am 20.7 17.7 12.1 58 4.8 SW 19 24 10 13 1018.9 - 0.0
31/10:00am 20.3 17.0 11.5 57 4.8 SSW 20 30 11 16 1019.0 1019.0 0.0
31/09:30am 19.5 16.1 11.3 59 4.5 SSW 20 28 11 15 1019.2 - 0.0
31/09:00am 19.0 15.8 11.3 61 4.2 SW 19 26 10 14 1019.3 1019.3 0.0
31/08:30am 19.0 16.4 12.0 64 3.9 WSW 17 24 9 13 1019.2 - 0.0
31/08:00am 18.1 16.2 11.9 67 3.4 WSW 13 17 7 9 1019.3 1019.3 0.0
31/07:30am 17.0 15.3 12.3 74 2.6 WSW 13 17 7 9 1019.2 - 0.0
31/07:00am 15.7 13.8 11.7 77 2.2 WSW 13 15 7 8 1019.0 1019.0 0.0
31/06:30am 14.7 12.8 11.7 82 1.6 W 13 15 7 8 1018.8 - 0.0
31/06:00am 14.5 12.4 11.1 80 1.8 W 13 15 7 8 1018.6 1018.6 0.0
31/05:30am 14.4 12.4 11.4 82 1.6 W 13 17 7 9 1018.4 - 0.0
31/05:00am 14.4 12.4 11.4 82 1.6 W 13 15 7 8 1017.9 1017.9 0.0
31/04:30am 14.4 12.4 11.4 82 1.6 W 13 15 7 8 1017.9 - 0.0
31/04:00am 13.7 11.8 11.7 88 1.1 W 13 13 7 7 1017.8 1017.8 0.0
31/03:30am 12.0 12.4 11.4 96 0.3 CALM 0 6 0 3 1017.8 - 0.0
31/03:13am 11.7 12.0 10.9 95 0.4 CALM 0 4 0 2 1017.7 - 0.0
31/03:00am 11.2 9.6 10.1 93 0.6 W 9 11 5 6 1017.8 1017.8 0.0
31/02:30am 11.5 10.3 10.2 92 0.7 W 7 9 4 5 1017.7 - 0.0
31/02:27am 11.4 10.1 10.1 92 0.7 W 7 9 4 5 1017.8 - 0.0
31/02:22am 11.6 10.4 10.3 92 0.7 W 7 7 4 4 1017.8 - 0.0
31/02:00am 12.1 11.2 10.7 91 0.7 W 6 7 3 4 1017.9 1017.9 0.0
31/01:30am 12.1 11.1 10.3 89 0.9 W 6 7 3 4 1018.2 - 0.0
31/01:00am 12.5 11.9 11.6 94 0.5 WNW 6 7 3 4 1018.4 1018.4 0.0
31/12:52am 12.4 11.6 11.6 95 0.4 NW 7 9 4 5 1018.4 - 0.0
31/12:30am 12.0 11.2 10.9 93 0.6 W 6 7 3 4 1018.5 - 0.0
31/12:00am 12.1 10.6 10.5 90 0.8 W 9 11 5 6 1018.6 1018.6 0.0
 
Date/Time
EST
Temp
°C
App
Temp
°C
Dew
Point
Rel
Hum
%
Delta-T
°C
Wind Press
QNH
hPa
Press
MSL
hPa
Rain
since 9 am
mm
Dir
 
Spd
km/h
Gust
km/h
Spd
kts
Gust
kts
30/11:30pm 12.9 12.2 11.5 91 0.7 W 6 9 3 5 1018.5 - 0.0
30/11:00pm 13.1 12.0 11.8 92 0.7 W 9 11 5 6 1018.5 1018.5 0.0
30/10:30pm 13.6 12.6 12.2 91 0.8 WSW 9 11 5 6 1018.4 - 0.0
30/10:00pm 14.4 13.2 12.8 90 0.9 WSW 11 13 6 7 1018.3 1018.3 0.0
30/09:30pm 14.0 13.4 12.4 90 0.9 WSW 7 9 4 5 1018.3 - 0.0
30/09:00pm 14.6 14.5 13.3 92 0.7 W 6 7 3 4 1018.3 1018.3 0.0
30/08:30pm 15.2 14.9 13.4 89 1.0 WSW 7 7 4 4 1018.3 - 0.0
30/08:00pm 14.8 14.0 12.8 88 1.1 WSW 9 11 5 6 1018.2 1018.2 0.0
30/07:30pm 15.1 14.3 12.8 86 1.3 WSW 9 13 5 7 1018.0 - 0.0
30/07:00pm 16.8 16.2 13.5 81 1.9 SW 9 13 5 7 1017.8 1017.8 0.0
30/06:30pm 16.9 15.8 13.2 79 2.1 SW 11 15 6 8 1017.7 - 0.0
30/06:00pm 17.7 16.6 13.2 75 2.5 SW 11 15 6 8 1017.5 1017.5 0.0
30/05:30pm 18.0 17.2 12.9 72 2.9 SW 9 11 5 6 1017.3 - 0.0
30/05:00pm 18.9 16.9 12.6 67 3.5 SSW 15 26 8 14 1017.3 1017.3 0.0
30/04:30pm 19.3 16.4 12.3 64 3.9 SSW 19 30 10 16 1017.2 - 0.0
30/04:00pm 19.2 16.2 12.5 65 3.7 S 20 30 11 16 1017.1 1017.1 0.0
30/03:30pm 19.8 16.2 13.0 65 3.8 S 24 33 13 18 1017.0 - 0.0
30/03:00pm 20.2 16.3 13.2 64 4.0 S 26 35 14 19 1017.1 1017.1 0.0
30/02:30pm 20.3 16.5 13.7 66 3.8 S 26 35 14 19 1017.1 - 0.0
30/02:00pm 20.3 15.9 13.0 63 4.1 S 28 39 15 21 1017.2 1017.2 0.0
30/01:30pm 20.3 15.8 12.5 61 4.4 S 28 37 15 20 1017.4 - 0.0
30/01:00pm 20.0 15.2 11.7 59 4.6 S 28 37 15 20 1017.7 1017.7 0.0
30/12:30pm 19.9 17.0 10.9 56 4.9 SW 17 24 9 13 1018.0 - 0.0
30/12:00pm 19.8 16.4 10.5 55 5.0 SW 19 35 10 19 1018.6 1018.6 0.0
30/11:30am 19.9 16.6 10.9 56 4.9 SW 19 28 10 15 1018.8 - 0.0
30/11:00am 18.8 15.0 9.8 56 4.8 SW 20 28 11 15 1019.1 1019.1 0.0
30/10:30am 18.5 14.3 8.2 51 5.3 WSW 20 28 11 15 1019.4 - 0.0
30/10:00am 18.1 13.8 7.8 51 5.2 W 20 28 11 15 1019.5 1019.5 0.0
30/09:30am 17.6 13.2 7.4 51 5.1 W 20 28 11 15 1019.7 - 0.0
30/09:00am 17.2 12.8 7.5 53 4.9 W 20 28 11 15 1019.7 1019.7 0.0
30/08:30am 16.6 12.7 7.0 53 4.8 W 17 22 9 12 1019.7 - 0.0
30/08:00am 15.9 11.3 6.6 54 4.5 W 20 24 11 13 1019.6 1019.6 0.0
30/07:30am 15.0 11.5 7.1 59 3.9 W 15 19 8 10 1019.5 - 0.0
30/07:00am 13.9 10.3 6.7 62 3.5 W 15 17 8 9 1019.2 1019.2 0.0
30/06:30am 12.8 8.7 6.4 65 3.0 W 17 24 9 13 1018.9 - 0.0
30/06:00am 12.4 8.5 6.9 69 2.6 W 17 20 9 11 1018.7 1018.7 0.0
30/05:30am 11.5 8.2 6.4 71 2.4 W 13 19 7 10 1018.7 - 0.0
30/05:00am 11.3 8.1 6.8 74 2.1 W 13 19 7 10 1018.5 1018.5 0.0
30/04:30am 10.7 7.2 7.0 78 1.8 W 15 17 8 9 1018.3 - 0.0
30/04:00am 11.2 7.7 7.3 77 1.9 W 15 20 8 11 1018.3 1018.3 0.0
30/03:30am 11.3 7.9 7.8 79 1.7 W 15 19 8 10 1018.3 - 0.0
30/03:00am 11.3 8.2 7.4 77 1.9 WNW 13 17 7 9 1018.5 1018.5 0.0
30/02:30am 10.5 6.9 6.8 78 1.7 W 15 17 8 9 1018.7 - 0.0
30/02:00am 10.8 7.7 7.3 79 1.7 W 13 15 7 8 1019.0 1019.0 0.0
30/01:30am 11.6 8.6 7.7 77 1.9 WSW 13 17 7 9 1019.1 - 0.0
30/01:00am 10.4 7.7 7.5 82 1.4 W 11 15 6 8 1019.4 1019.4 0.0
30/12:30am 10.9 8.8 8.3 84 1.3 W 9 11 5 6 1019.6 - 0.0
30/12:00am 10.5 9.0 8.4 87 1.0 WSW 6 7 3 4 1019.7 1019.7 0.0
 
Date/Time
EST
Temp
°C
App
Temp
°C
Dew
Point
Rel
Hum
%
Delta-T
°C
Wind Press
QNH
hPa
Press
MSL
hPa
Rain
since 9 am
mm
Dir
 
Spd
km/h
Gust
km/h
Spd
kts
Gust
kts
29/11:30pm 12.0 10.5 8.3 78 1.8 W 6 7 3 4 1020.0 - 0.0

Other Formats:

Comma delimited format used in spreadsheet applications
http://www.bom.gov.au/fwo/IDN60801/IDN60801.94596.axf

JavaScript Object Notation format (JSON) in row-major order
http://www.bom.gov.au/fwo/IDN60801/IDN60801.94596.json